createdAt,value
2019-02-19T00:00:06.126Z,73.98
2019-02-19T00:01:06.121Z,73.36
2019-02-19T00:02:06.097Z,74.19
2019-02-19T00:03:06.085Z,73.67
2019-02-19T00:04:06.122Z,73.98
2019-02-19T00:05:06.093Z,73.57
2019-02-19T00:06:06.049Z,73.91
2019-02-19T00:07:06.044Z,73.88
2019-02-19T00:08:06.038Z,73.88
2019-02-19T00:09:06.044Z,73.98
2019-02-19T00:10:06.022Z,73.98
2019-02-19T00:11:06.006Z,73.91
2019-02-19T00:12:05.995Z,74.02
2019-02-19T00:13:05.986Z,73.71
2019-02-19T00:14:05.996Z,74.22
2019-02-19T00:15:08.215Z,74.12
2019-02-19T00:16:06.121Z,74.22
2019-02-19T00:17:05.938Z,74.22
2019-02-19T00:18:05.934Z,74.12
2019-02-19T00:19:05.926Z,74.12
2019-02-19T00:20:05.948Z,73.91
2019-02-19T00:21:05.901Z,74.02
2019-02-19T00:22:05.889Z,73.46
2019-02-19T00:23:05.872Z,74.02
2019-02-19T00:24:05.908Z,73.71
2019-02-19T00:25:05.940Z,74.12
2019-02-19T00:26:05.847Z,74.02
2019-02-19T00:27:05.822Z,73.81
2019-02-19T00:28:05.821Z,73.71
2019-02-19T00:29:05.801Z,74.74
2019-02-19T00:30:05.826Z,73.91
2019-02-19T00:31:05.788Z,73.91
2019-02-19T00:32:05.801Z,73.71
2019-02-19T00:33:05.787Z,73.81
2019-02-19T00:34:05.751Z,73.71
2019-02-19T00:35:05.737Z,74.12
2019-02-19T00:36:05.731Z,74.63
2019-02-19T00:37:05.718Z,74.84
2019-02-19T00:38:06.393Z,75.15
2019-02-19T00:39:05.697Z,75.36
2019-02-19T00:40:05.676Z,75.09
2019-02-19T00:41:05.667Z,75.57
2019-02-19T00:42:05.666Z,75.29
2019-02-19T00:43:05.670Z,75.26
2019-02-19T00:44:05.643Z,75.36
2019-02-19T00:45:05.638Z,75.36
2019-02-19T00:46:05.611Z,75.40
2019-02-19T00:47:05.601Z,75.50
2019-02-19T00:48:05.913Z,75.71
2019-02-19T00:49:05.602Z,75.81
2019-02-19T00:50:05.586Z,75.29
2019-02-19T00:51:05.583Z,75.40
2019-02-19T00:52:05.559Z,75.50
2019-02-19T00:53:05.575Z,75.40
2019-02-19T00:54:05.542Z,75.60
2019-02-19T00:55:05.531Z,75.29
2019-02-19T00:56:05.514Z,75.50
2019-02-19T00:57:05.505Z,75.81
2019-02-19T00:58:05.494Z,75.60
2019-02-19T00:59:05.499Z,75.60
2019-02-19T01:00:05.484Z,75.60
2019-02-19T01:01:05.449Z,75.40
2019-02-19T01:02:05.449Z,75.81
2019-02-19T01:03:05.438Z,75.81
2019-02-19T01:04:05.461Z,75.71
2019-02-19T01:05:05.418Z,75.92
2019-02-19T01:06:05.401Z,75.71
2019-02-19T01:07:05.392Z,75.50
2019-02-19T01:08:05.384Z,75.81
2019-02-19T01:09:05.377Z,75.60
2019-02-19T01:10:05.378Z,75.40
2019-02-19T01:11:05.343Z,76.02
2019-02-19T01:12:05.332Z,75.60
2019-02-19T01:13:05.328Z,76.02
2019-02-19T01:14:05.322Z,75.92
2019-02-19T01:15:05.327Z,76.12
2019-02-19T01:16:05.303Z,75.84
2019-02-19T01:17:05.288Z,75.95
2019-02-19T01:18:05.270Z,76.02
2019-02-19T01:19:05.259Z,75.84
2019-02-19T01:20:05.262Z,76.15
2019-02-19T01:21:05.239Z,76.05
2019-02-19T01:22:05.233Z,75.84
2019-02-19T01:23:05.223Z,75.95
2019-02-19T01:24:05.200Z,76.05
2019-02-19T01:25:05.222Z,75.84
2019-02-19T01:26:05.185Z,76.57
2019-02-19T01:27:05.181Z,76.46
2019-02-19T01:28:05.169Z,76.67
2019-02-19T01:29:05.159Z,76.05
2019-02-19T01:30:05.138Z,76.46
2019-02-19T01:31:05.151Z,75.74
2019-02-19T01:32:05.115Z,76.05
2019-02-19T01:33:05.104Z,76.46
2019-02-19T01:34:05.098Z,76.46
2019-02-19T01:35:05.097Z,76.46
2019-02-19T01:36:05.109Z,76.67
2019-02-19T01:37:05.070Z,75.84
2019-02-19T01:38:05.048Z,76.57
2019-02-19T01:39:05.042Z,76.05
2019-02-19T01:40:05.030Z,75.84
2019-02-19T01:41:05.022Z,75.81
2019-02-19T01:42:05.020Z,75.81
2019-02-19T01:43:04.989Z,75.60
2019-02-19T01:44:04.984Z,75.92
2019-02-19T01:45:04.971Z,75.60
2019-02-19T01:46:04.969Z,75.50
2019-02-19T01:47:04.983Z,75.40
2019-02-19T01:48:04.939Z,75.60
2019-02-19T01:49:04.925Z,75.60
2019-02-19T01:50:04.931Z,75.81
2019-02-19T01:51:04.924Z,75.71
2019-02-19T01:52:04.934Z,75.60
2019-02-19T01:53:04.890Z,75.81
2019-02-19T01:54:04.875Z,75.71
2019-02-19T01:55:04.872Z,75.19
2019-02-19T01:56:04.863Z,75.40
2019-02-19T01:57:04.848Z,75.40
2019-02-19T01:58:04.847Z,75.50
2019-02-19T01:59:04.821Z,74.98
2019-02-19T02:00:04.811Z,74.77
2019-02-19T02:01:04.798Z,74.77
2019-02-19T02:02:04.792Z,75.19
2019-02-19T02:03:04.816Z,75.29
2019-02-19T02:04:04.785Z,75.19
2019-02-19T02:05:04.762Z,75.40
2019-02-19T02:06:04.742Z,74.98
2019-02-19T02:07:04.735Z,74.98
2019-02-19T02:08:04.738Z,75.19
2019-02-19T02:09:04.729Z,74.98
2019-02-19T02:10:04.706Z,75.29
2019-02-19T02:11:04.706Z,74.84
2019-02-19T02:12:04.674Z,75.05
2019-02-19T02:13:04.662Z,75.19
2019-02-19T02:14:04.682Z,74.98
2019-02-19T02:15:04.657Z,75.09
2019-02-19T02:16:04.638Z,74.67
2019-02-19T02:17:04.634Z,74.98
2019-02-19T02:18:04.621Z,74.74
2019-02-19T02:19:04.628Z,75.15
2019-02-19T02:20:04.584Z,74.63
2019-02-19T02:21:04.574Z,74.84
2019-02-19T02:22:04.586Z,74.63
2019-02-19T02:23:04.568Z,74.63
2019-02-19T02:24:04.575Z,74.26
2019-02-19T02:25:04.542Z,74.15
2019-02-19T02:26:04.522Z,74.53
2019-02-19T02:27:04.514Z,74.67
2019-02-19T02:28:04.520Z,74.63
2019-02-19T02:29:04.535Z,74.22
2019-02-19T02:30:04.490Z,74.77
2019-02-19T02:31:04.469Z,74.36
2019-02-19T02:32:04.463Z,74.63
2019-02-19T02:33:04.448Z,74.77
2019-02-19T02:34:04.446Z,74.74
2019-02-19T02:35:04.455Z,74.26
2019-02-19T02:36:04.420Z,74.22
2019-02-19T02:37:04.414Z,74.43
2019-02-19T02:38:04.393Z,73.71
2019-02-19T02:39:04.397Z,74.02
2019-02-19T02:40:04.400Z,73.60
2019-02-19T02:41:04.357Z,74.12
2019-02-19T02:42:04.356Z,74.12
2019-02-19T02:43:04.357Z,74.12
2019-02-19T02:44:04.328Z,74.22
2019-02-19T02:45:04.362Z,74.12
2019-02-19T02:46:04.324Z,73.91
2019-02-19T02:47:04.319Z,73.91
2019-02-19T02:48:04.287Z,73.81
2019-02-19T02:49:04.280Z,73.81
2019-02-19T02:50:04.272Z,73.91
2019-02-19T02:51:04.272Z,74.12
2019-02-19T02:52:04.239Z,74.22
2019-02-19T02:53:04.227Z,73.60
2019-02-19T02:54:04.230Z,74.32
2019-02-19T02:55:04.216Z,73.81
2019-02-19T02:56:04.248Z,74.53
2019-02-19T02:57:04.187Z,74.22
2019-02-19T02:58:04.177Z,74.22
2019-02-19T02:59:04.186Z,74.22
2019-02-19T03:00:04.172Z,73.91
2019-02-19T03:01:04.153Z,73.50
2019-02-19T03:02:04.172Z,73.94
2019-02-19T03:03:04.127Z,74.22
2019-02-19T03:04:04.112Z,74.74
2019-02-19T03:05:04.099Z,74.43
2019-02-19T03:06:04.095Z,74.74
2019-02-19T03:07:04.080Z,74.74
2019-02-19T03:08:04.097Z,74.84
2019-02-19T03:09:04.065Z,74.63
2019-02-19T03:10:04.045Z,74.74
2019-02-19T03:11:04.034Z,74.77
2019-02-19T03:12:04.017Z,74.84
2019-02-19T03:13:04.033Z,74.95
2019-02-19T03:14:04.011Z,74.53
2019-02-19T03:15:03.997Z,75.05
2019-02-19T03:16:03.981Z,74.84
2019-02-19T03:17:03.974Z,74.88
2019-02-19T03:18:03.975Z,73.84
2019-02-19T03:19:03.986Z,74.12
2019-02-19T03:20:03.936Z,74.26
2019-02-19T03:21:03.927Z,74.12
2019-02-19T03:22:03.914Z,74.77
2019-02-19T03:23:03.904Z,74.26
2019-02-19T03:24:03.911Z,74.98
2019-02-19T03:25:03.897Z,74.77
2019-02-19T03:26:03.869Z,74.98
2019-02-19T03:27:03.875Z,74.77
2019-02-19T03:28:03.875Z,75.29
2019-02-19T03:29:03.842Z,75.19
2019-02-19T03:30:03.843Z,74.67
2019-02-19T03:31:03.820Z,74.98
2019-02-19T03:32:03.839Z,74.67
2019-02-19T03:33:03.807Z,74.77
2019-02-19T03:34:03.787Z,74.98
2019-02-19T03:35:03.790Z,74.77
2019-02-19T03:36:03.751Z,74.77
2019-02-19T03:37:03.742Z,74.88
2019-02-19T03:38:03.744Z,74.98
2019-02-19T03:39:03.730Z,74.57
2019-02-19T03:40:03.735Z,75.19
2019-02-19T03:41:03.727Z,74.98
2019-02-19T03:42:03.697Z,74.46
2019-02-19T03:43:03.678Z,74.15
2019-02-19T03:44:03.668Z,73.94
2019-02-19T03:45:03.680Z,73.84
2019-02-19T03:46:11.758Z,73.63
2019-02-19T03:47:04.649Z,74.05
2019-02-19T03:48:03.626Z,74.05
2019-02-19T03:49:03.622Z,74.22
2019-02-19T03:50:03.611Z,74.26
2019-02-19T03:51:03.649Z,74.36
2019-02-19T03:52:03.597Z,74.05
2019-02-19T03:53:03.585Z,73.94
2019-02-19T03:54:03.565Z,74.05
2019-02-19T03:55:03.556Z,73.74
2019-02-19T03:56:03.559Z,74.05
2019-02-19T03:57:03.525Z,73.84
2019-02-19T03:58:03.529Z,74.05
2019-02-19T03:59:03.525Z,74.15
2019-02-19T04:00:03.511Z,74.53
2019-02-19T04:01:03.536Z,73.71
2019-02-19T04:02:03.487Z,73.74
2019-02-19T04:03:03.497Z,73.63
2019-02-19T04:04:03.458Z,73.74
2019-02-19T04:05:03.454Z,73.81
2019-02-19T04:06:03.430Z,74.46
2019-02-19T04:07:03.437Z,74.36
2019-02-19T04:08:03.404Z,74.26
2019-02-19T04:09:03.400Z,74.26
2019-02-19T04:10:03.416Z,74.26
2019-02-19T04:11:03.387Z,74.05
2019-02-19T04:12:03.399Z,74.05
2019-02-19T04:13:03.363Z,74.05
2019-02-19T04:14:03.340Z,74.26
2019-02-19T04:15:03.331Z,74.05
2019-02-19T04:16:03.322Z,73.84
2019-02-19T04:17:03.337Z,74.05
2019-02-19T04:18:03.304Z,74.26
2019-02-19T04:19:03.293Z,74.02
2019-02-19T04:20:03.285Z,73.94
2019-02-19T04:21:03.305Z,74.05
2019-02-19T04:22:03.294Z,73.74
2019-02-19T04:23:03.280Z,73.94
2019-02-19T04:24:03.250Z,74.26
2019-02-19T04:25:03.255Z,74.15
2019-02-19T04:26:03.213Z,74.26
2019-02-19T04:27:03.230Z,74.05
2019-02-19T04:28:03.209Z,73.74
2019-02-19T04:29:03.178Z,74.15
2019-02-19T04:30:03.195Z,74.36
2019-02-19T04:31:03.168Z,74.36
2019-02-19T04:32:03.173Z,74.15
2019-02-19T04:33:03.166Z,74.36
2019-02-19T04:34:03.119Z,74.15
2019-02-19T04:35:03.112Z,74.15
2019-02-19T04:36:03.116Z,73.94
2019-02-19T04:37:03.097Z,73.94
2019-02-19T04:38:03.134Z,74.36
2019-02-19T04:39:03.065Z,74.15
2019-02-19T04:40:03.060Z,73.84
2019-02-19T04:41:03.048Z,74.26
2019-02-19T04:42:03.056Z,73.74
2019-02-19T04:43:03.033Z,74.26
2019-02-19T04:44:03.057Z,73.74
2019-02-19T04:45:03.044Z,73.84
2019-02-19T04:46:02.988Z,73.84
2019-02-19T04:47:02.983Z,74.36
2019-02-19T04:48:03.022Z,73.74
2019-02-19T04:49:03.026Z,73.63
2019-02-19T04:50:02.970Z,73.74
2019-02-19T04:51:02.944Z,73.74
2019-02-19T04:52:02.930Z,74.02
2019-02-19T04:53:02.922Z,73.84
2019-02-19T04:54:02.941Z,74.15
2019-02-19T04:55:02.927Z,73.63
2019-02-19T04:56:02.891Z,73.53
2019-02-19T04:57:02.891Z,73.74
2019-02-19T04:58:02.866Z,74.36
2019-02-19T04:59:02.897Z,73.94
2019-02-19T05:00:02.846Z,74.15
2019-02-19T05:01:02.893Z,74.26
2019-02-19T05:02:02.831Z,74.36
2019-02-19T05:03:02.811Z,74.46
2019-02-19T05:04:02.800Z,74.05
2019-02-19T05:05:02.792Z,73.74
2019-02-19T05:06:02.795Z,74.81
2019-02-19T05:07:02.752Z,74.88
2019-02-19T05:08:02.754Z,74.98
2019-02-19T05:09:02.741Z,74.77
2019-02-19T05:10:02.730Z,74.67
2019-02-19T05:11:02.739Z,74.81
2019-02-19T05:12:02.712Z,75.32
2019-02-19T05:13:02.696Z,75.32
2019-02-19T05:14:02.696Z,74.81
2019-02-19T05:15:02.708Z,75.09
2019-02-19T05:16:02.700Z,75.29
2019-02-19T05:17:02.667Z,74.81
2019-02-19T05:18:02.645Z,75.19
2019-02-19T05:19:02.658Z,75.29
2019-02-19T05:20:02.644Z,75.09
2019-02-19T05:21:02.610Z,75.32
2019-02-19T05:22:02.605Z,74.98
2019-02-19T05:23:02.594Z,75.29
2019-02-19T05:24:02.578Z,75.43
2019-02-19T05:25:02.566Z,74.98
2019-02-19T05:26:02.587Z,75.43
2019-02-19T05:27:02.559Z,75.22
2019-02-19T05:28:02.547Z,74.81
2019-02-19T05:29:02.538Z,75.32
2019-02-19T05:30:02.524Z,75.53
2019-02-19T05:31:02.530Z,75.63
2019-02-19T05:32:02.500Z,75.53
2019-02-19T05:33:02.494Z,75.74
2019-02-19T05:34:02.484Z,75.43
2019-02-19T05:35:02.472Z,75.84
2019-02-19T05:36:02.477Z,75.63
2019-02-19T05:37:02.473Z,76.05
2019-02-19T05:38:02.429Z,75.57
2019-02-19T05:39:02.414Z,75.63
2019-02-19T05:40:02.415Z,76.05
2019-02-19T05:41:02.397Z,75.53
2019-02-19T05:42:02.406Z,75.98
2019-02-19T05:43:02.378Z,75.95
2019-02-19T05:44:02.358Z,76.29
2019-02-19T05:45:02.346Z,75.63
2019-02-19T05:46:02.368Z,76.05
2019-02-19T05:47:02.370Z,75.95
2019-02-19T05:48:02.330Z,76.05
2019-02-19T05:49:02.323Z,75.95
2019-02-19T05:50:02.305Z,76.05
2019-02-19T05:51:02.284Z,76.15
2019-02-19T05:52:02.300Z,75.95
2019-02-19T05:53:02.261Z,75.74
2019-02-19T05:54:02.270Z,75.95
2019-02-19T05:55:02.255Z,76.05
2019-02-19T05:56:02.231Z,76.26
2019-02-19T05:57:02.251Z,75.74
2019-02-19T05:58:02.223Z,76.05
2019-02-19T05:59:02.217Z,75.95
2019-02-19T06:00:02.205Z,75.22
2019-02-19T06:01:02.188Z,75.71
2019-02-19T06:02:02.168Z,76.02
2019-02-19T06:03:02.177Z,75.50
2019-02-19T06:04:02.142Z,75.32
2019-02-19T06:05:02.143Z,75.29
2019-02-19T06:06:02.135Z,75.40
2019-02-19T06:07:02.115Z,75.29
2019-02-19T06:08:02.109Z,74.88
2019-02-19T06:09:02.145Z,74.15
2019-02-19T06:10:02.083Z,73.71
2019-02-19T06:11:02.062Z,74.77
2019-02-19T06:12:02.071Z,73.53
2019-02-19T06:13:02.056Z,73.74
2019-02-19T06:14:02.057Z,73.71
2019-02-19T06:15:02.027Z,74.32
2019-02-19T06:16:02.031Z,74.26
2019-02-19T06:17:02.000Z,74.32
2019-02-19T06:18:02.000Z,74.02
2019-02-19T06:19:01.991Z,74.02
2019-02-19T06:20:02.015Z,74.22
2019-02-19T06:21:01.970Z,73.71
2019-02-19T06:22:01.978Z,73.71
2019-02-19T06:23:01.931Z,73.50
2019-02-19T06:24:01.924Z,73.08
2019-02-19T06:25:01.927Z,73.71
2019-02-19T06:26:01.939Z,73.77
2019-02-19T06:27:01.904Z,73.57
2019-02-19T06:28:01.885Z,73.05
2019-02-19T06:29:01.907Z,73.36
2019-02-19T06:30:01.868Z,73.05
2019-02-19T06:31:01.856Z,73.25
2019-02-19T06:32:01.847Z,72.39
2019-02-19T06:33:01.845Z,72.50
2019-02-19T06:34:01.811Z,71.98
2019-02-19T06:35:01.823Z,71.84
2019-02-19T06:36:01.801Z,71.02
2019-02-19T06:37:01.779Z,70.54
2019-02-19T06:38:01.782Z,69.27
2019-02-19T06:39:01.769Z,68.72
2019-02-19T06:40:01.786Z,68.00
2019-02-19T06:41:02.073Z,67.86
2019-02-19T06:42:01.720Z,66.83
2019-02-19T06:43:01.739Z,66.63
2019-02-19T06:44:01.709Z,66.86
2019-02-19T06:45:01.708Z,67.79
2019-02-19T06:46:01.683Z,67.38
2019-02-19T06:47:06.902Z,67.51
2019-02-19T06:48:02.660Z,67.69
2019-02-19T06:49:01.655Z,67.48
2019-02-19T06:50:01.647Z,67.17
2019-02-19T06:51:01.672Z,68.00
2019-02-19T06:52:01.625Z,67.69
2019-02-19T06:53:01.612Z,67.41
2019-02-19T06:54:01.594Z,67.93
2019-02-19T06:55:01.588Z,67.72
2019-02-19T06:56:01.573Z,68.24
2019-02-19T06:57:01.590Z,67.72
2019-02-19T06:58:01.564Z,68.44
2019-02-19T06:59:01.553Z,67.79
2019-02-19T07:00:01.529Z,68.13
2019-02-19T07:01:01.518Z,68.00
2019-02-19T07:02:01.568Z,67.58
2019-02-19T07:03:01.503Z,67.79
2019-02-19T07:04:01.490Z,67.07
2019-02-19T07:05:01.489Z,66.73
2019-02-19T07:06:01.470Z,65.43
2019-02-19T07:07:01.449Z,65.19
2019-02-19T07:08:01.463Z,64.17
2019-02-19T07:09:01.443Z,64.44
2019-02-19T07:10:01.431Z,63.49
2019-02-19T07:11:01.443Z,63.39
2019-02-19T07:12:01.416Z,62.97
2019-02-19T07:13:01.424Z,63.62
2019-02-19T07:14:01.372Z,63.07
2019-02-19T07:15:01.364Z,63.00
2019-02-19T07:16:01.361Z,62.66
2019-02-19T07:17:01.349Z,62.95
2019-02-19T07:18:01.338Z,61.27
2019-02-19T07:19:01.348Z,61.07
2019-02-19T07:20:01.311Z,59.80
2019-02-19T07:21:01.303Z,60.39
2019-02-19T07:22:01.296Z,59.88
2019-02-19T07:23:01.286Z,59.77
2019-02-19T07:24:04.494Z,59.88
2019-02-19T07:25:01.265Z,59.85
2019-02-19T07:26:01.240Z,58.83
2019-02-19T07:27:01.232Z,59.44
2019-02-19T07:28:01.219Z,59.57
2019-02-19T07:29:01.241Z,59.77
2019-02-19T07:30:01.217Z,59.88
2019-02-19T07:31:01.202Z,60.49
2019-02-19T07:32:01.174Z,59.57
2019-02-19T07:33:01.163Z,59.88
2019-02-19T07:34:01.159Z,60.19
2019-02-19T07:35:01.172Z,60.39
2019-02-19T07:36:01.142Z,60.29
2019-02-19T07:37:01.137Z,60.42
2019-02-19T07:38:01.110Z,60.60
2019-02-19T07:39:01.108Z,60.60
2019-02-19T07:40:01.111Z,59.67
2019-02-19T07:41:01.079Z,60.80
2019-02-19T07:42:01.072Z,60.36
2019-02-19T07:43:01.077Z,60.16
2019-02-19T07:44:01.080Z,60.47
2019-02-19T07:45:01.039Z,60.16
2019-02-19T07:46:01.024Z,60.26
2019-02-19T07:47:01.017Z,60.47
2019-02-19T07:48:01.015Z,60.26
2019-02-19T07:49:01.002Z,60.36
2019-02-19T07:50:00.995Z,60.47
2019-02-19T07:51:00.965Z,60.19
2019-02-19T07:52:00.963Z,60.80
2019-02-19T07:53:00.960Z,59.95
2019-02-19T07:54:00.940Z,60.98
2019-02-19T07:55:00.950Z,60.29
2019-02-19T07:56:00.914Z,60.29
2019-02-19T07:57:00.913Z,61.08
2019-02-19T07:58:00.896Z,60.05
2019-02-19T07:59:00.881Z,60.77
2019-02-19T08:00:00.896Z,60.57
2019-02-19T08:01:00.854Z,60.05
2019-02-19T08:02:00.866Z,60.16
2019-02-19T08:03:00.848Z,60.03
2019-02-19T08:04:00.825Z,59.72
2019-02-19T08:05:00.808Z,59.72
2019-02-19T08:06:00.821Z,59.69
2019-02-19T08:07:00.799Z,58.97
2019-02-19T08:08:00.785Z,59.48
2019-02-19T08:09:00.775Z,59.52
2019-02-19T08:10:00.755Z,59.62
2019-02-19T08:11:00.762Z,60.03
2019-02-19T08:12:00.733Z,59.80
2019-02-19T08:13:00.752Z,59.28
2019-02-19T08:14:00.721Z,59.08
2019-02-19T08:15:00.700Z,58.54
2019-02-19T08:16:00.718Z,59.15
2019-02-19T08:17:00.707Z,58.64
2019-02-19T08:18:00.666Z,59.05
2019-02-19T08:19:00.653Z,58.12
2019-02-19T08:20:00.655Z,57.48
2019-02-19T08:21:00.642Z,57.56
2019-02-19T08:22:00.653Z,57.87
2019-02-19T08:23:00.617Z,56.54
2019-02-19T08:24:00.617Z,56.51
2019-02-19T08:25:00.590Z,56.28
2019-02-19T08:26:00.591Z,56.18
2019-02-19T08:27:00.583Z,55.97
2019-02-19T08:28:00.566Z,55.36
2019-02-19T08:29:11.402Z,55.77
2019-02-19T08:30:01.552Z,56.05
2019-02-19T08:31:00.535Z,55.74
2019-02-19T08:32:00.521Z,54.82
2019-02-19T08:33:00.500Z,54.92
2019-02-19T08:34:00.540Z,55.43
2019-02-19T08:35:00.487Z,54.69
2019-02-19T08:36:00.477Z,55.30
2019-02-19T08:37:00.467Z,54.67
2019-02-19T08:38:00.460Z,54.36
2019-02-19T08:39:00.442Z,54.16
2019-02-19T08:40:00.447Z,54.13
2019-02-19T08:41:00.422Z,53.83
2019-02-19T08:42:00.401Z,54.87
2019-02-19T08:43:00.390Z,54.46
2019-02-19T08:44:00.375Z,54.69
2019-02-19T08:45:00.404Z,55.10
2019-02-19T08:46:00.376Z,55.21
2019-02-19T08:47:00.358Z,55.23
2019-02-19T08:48:00.349Z,56.66
2019-02-19T08:49:00.332Z,56.35
2019-02-19T08:50:00.339Z,56.56
2019-02-19T08:51:00.328Z,56.97
2019-02-19T08:52:00.305Z,56.89
2019-02-19T08:53:00.295Z,57.64
2019-02-19T08:54:00.271Z,57.64
2019-02-19T08:55:00.343Z,58.66
2019-02-19T08:56:00.248Z,58.35
2019-02-19T08:57:00.237Z,58.76
2019-02-19T08:58:00.231Z,59.07
2019-02-19T08:59:00.226Z,58.66
2019-02-19T09:00:00.313Z,58.22
2019-02-19T09:01:00.208Z,57.58
2019-02-19T09:02:00.208Z,56.74
2019-02-19T09:03:00.201Z,56.20
2019-02-19T09:04:00.162Z,55.15
2019-02-19T09:05:00.148Z,55.26
2019-02-19T09:06:00.162Z,55.33
2019-02-19T09:07:00.156Z,54.28
2019-02-19T09:08:00.108Z,54.18
2019-02-19T09:09:00.100Z,53.77
2019-02-19T09:10:00.110Z,53.27
2019-02-19T09:11:00.100Z,53.36
2019-02-19T09:12:00.090Z,54.61
2019-02-19T09:13:00.069Z,55.36
2019-02-19T09:14:00.080Z,55.36
2019-02-19T09:15:00.061Z,56.17
2019-02-19T09:16:00.051Z,56.61
2019-02-19T09:17:00.030Z,55.89
2019-02-19T09:18:00.032Z,56.71
2019-02-19T09:19:00.008Z,57.32
2019-02-19T09:19:59.996Z,56.84
2019-02-19T09:21:00.003Z,57.43
2019-02-19T09:21:59.960Z,57.56
2019-02-19T09:22:59.954Z,57.66
2019-02-19T09:24:08.995Z,57.79
2019-02-19T09:25:00.963Z,58.09
2019-02-19T09:25:59.932Z,58.50
2019-02-19T09:26:59.908Z,59.01
2019-02-19T09:27:59.888Z,58.50
2019-02-19T09:28:59.906Z,58.40
2019-02-19T09:29:59.883Z,58.48
2019-02-19T09:30:59.879Z,59.01
2019-02-19T09:31:59.860Z,58.50
2019-02-19T09:32:59.971Z,59.01
2019-02-19T09:33:59.867Z,58.61
2019-02-19T09:34:59.814Z,59.63
2019-02-19T09:35:59.798Z,59.86
2019-02-19T09:36:59.787Z,59.35
2019-02-19T09:37:59.791Z,60.37
2019-02-19T09:38:59.773Z,60.06
2019-02-19T09:39:59.773Z,59.96
2019-02-19T09:40:59.742Z,61.11
2019-02-19T09:41:59.742Z,60.60
2019-02-19T09:42:59.728Z,59.78
2019-02-19T09:43:59.731Z,60.60
2019-02-19T09:44:59.748Z,60.60
2019-02-19T09:45:59.704Z,60.30
2019-02-19T09:46:59.688Z,60.27
2019-02-19T09:48:01.545Z,60.50
2019-02-19T09:48:59.664Z,60.58
2019-02-19T09:49:59.663Z,61.11
2019-02-19T09:50:59.675Z,60.99
2019-02-19T09:51:59.634Z,61.40
2019-02-19T09:53:00.399Z,60.58
2019-02-19T09:53:59.635Z,60.24
2019-02-19T09:54:59.604Z,60.35
2019-02-19T09:55:59.611Z,60.01
2019-02-19T09:56:59.609Z,59.27
2019-02-19T09:57:59.558Z,59.60
2019-02-19T09:58:59.563Z,59.70
2019-02-19T09:59:59.541Z,59.09
2019-02-19T10:00:59.564Z,59.22
2019-02-19T10:01:59.530Z,59.83
2019-02-19T10:02:59.561Z,60.14
2019-02-19T10:03:59.512Z,59.83
2019-02-19T10:04:59.502Z,60.75
2019-02-19T10:05:59.472Z,60.75
2019-02-19T10:06:59.472Z,61.47
2019-02-19T10:07:59.474Z,60.75
2019-02-19T10:08:59.451Z,60.75
2019-02-19T10:09:59.434Z,60.75
2019-02-19T10:10:59.443Z,60.85
2019-02-19T10:11:59.403Z,60.85
2019-02-19T10:12:59.417Z,60.55
2019-02-19T10:13:59.389Z,61.26
2019-02-19T10:14:59.392Z,61.88
2019-02-19T10:15:59.395Z,61.77
2019-02-19T10:16:59.367Z,61.47
2019-02-19T10:17:59.375Z,61.77
2019-02-19T10:18:59.332Z,61.40
2019-02-19T10:19:59.327Z,61.50
2019-02-19T10:20:59.790Z,62.11
2019-02-19T10:21:59.310Z,61.40
2019-02-19T10:22:59.288Z,62.32
2019-02-19T10:23:59.290Z,61.47
2019-02-19T10:24:59.261Z,61.47
2019-02-19T10:25:59.272Z,62.18
2019-02-19T10:26:59.244Z,62.29
2019-02-19T10:27:59.233Z,61.67
2019-02-19T10:28:59.218Z,61.36
2019-02-19T10:29:59.231Z,62.18
2019-02-19T10:30:59.200Z,61.36
2019-02-19T10:31:59.196Z,62.39
2019-02-19T10:32:59.179Z,61.77
2019-02-19T10:33:59.159Z,62.49
2019-02-19T10:34:59.181Z,62.08
2019-02-19T10:35:59.134Z,62.49
2019-02-19T10:36:59.127Z,62.08
2019-02-19T10:37:59.125Z,61.98
2019-02-19T10:38:59.115Z,62.52
2019-02-19T10:39:59.100Z,62.32
2019-02-19T10:40:59.121Z,62.21
2019-02-19T10:41:59.072Z,64.16
2019-02-19T10:42:59.064Z,62.83
2019-02-19T10:43:59.057Z,63.13
2019-02-19T10:44:59.062Z,62.93
2019-02-19T10:45:59.027Z,63.24
2019-02-19T10:46:59.049Z,64.06
2019-02-19T10:47:59.009Z,62.73
2019-02-19T10:48:58.994Z,62.90
2019-02-19T10:49:58.986Z,63.44
2019-02-19T10:50:58.984Z,63.13
2019-02-19T10:51:58.996Z,62.70
2019-02-19T10:52:58.955Z,62.62
2019-02-19T10:53:58.957Z,62.80
2019-02-19T10:54:58.934Z,62.90
2019-02-19T10:55:58.918Z,61.67
2019-02-19T10:56:58.908Z,62.70
2019-02-19T10:57:58.922Z,62.39
2019-02-19T10:58:58.905Z,62.16
2019-02-19T10:59:58.883Z,61.95
2019-02-19T11:00:58.864Z,61.61
2019-02-19T11:01:58.857Z,62.43
2019-02-19T11:02:58.869Z,61.92
2019-02-19T11:03:58.837Z,61.61
2019-02-19T11:04:58.829Z,61.08
2019-02-19T11:05:58.837Z,61.21
2019-02-19T11:06:58.785Z,61.90
2019-02-19T11:07:58.795Z,62.30
2019-02-19T11:08:58.773Z,61.08
2019-02-19T11:09:58.768Z,61.08
2019-02-19T11:10:58.760Z,60.26
2019-02-19T11:11:58.754Z,60.85
2019-02-19T11:12:58.754Z,60.33
2019-02-19T11:13:58.710Z,59.72
2019-02-19T11:14:58.706Z,59.39
2019-02-19T11:15:58.706Z,59.28
2019-02-19T11:16:58.696Z,59.49
2019-02-19T11:17:58.705Z,59.77
2019-02-19T11:18:58.661Z,59.39
2019-02-19T11:19:58.655Z,58.87
2019-02-19T11:20:58.638Z,59.56
2019-02-19T11:21:58.643Z,59.49
2019-02-19T11:22:58.647Z,59.36
2019-02-19T11:23:58.637Z,59.16
2019-02-19T11:24:58.608Z,59.36
2019-02-19T11:25:58.579Z,59.36
2019-02-19T11:26:58.569Z,59.16
2019-02-19T11:27:58.599Z,58.85
2019-02-19T11:28:58.550Z,59.26
2019-02-19T11:29:58.554Z,58.34
2019-02-19T11:30:58.537Z,58.44
2019-02-19T11:31:58.518Z,58.64
2019-02-19T11:32:58.512Z,58.23
2019-02-19T11:33:58.529Z,59.05
2019-02-19T11:34:58.492Z,58.85
2019-02-19T11:35:58.482Z,58.85
2019-02-19T11:36:58.473Z,58.64
2019-02-19T11:37:58.449Z,58.54
2019-02-19T11:38:58.464Z,58.64
2019-02-19T11:39:58.463Z,59.26
2019-02-19T11:40:58.422Z,58.23
2019-02-19T11:41:58.418Z,58.64
2019-02-19T11:42:58.416Z,58.64
2019-02-19T11:43:58.419Z,58.87
2019-02-19T11:44:58.392Z,59.28
2019-02-19T11:45:58.364Z,60.21
2019-02-19T11:46:58.382Z,59.11
2019-02-19T11:47:58.360Z,59.72
2019-02-19T11:48:58.380Z,60.03
2019-02-19T11:49:58.319Z,60.03
2019-02-19T11:50:58.334Z,59.92
2019-02-19T11:51:58.298Z,60.64
2019-02-19T11:52:58.291Z,60.46
2019-02-19T11:53:58.283Z,60.44
2019-02-19T11:54:58.278Z,61.28
2019-02-19T11:55:58.295Z,62.20
2019-02-19T11:56:58.255Z,61.38
2019-02-19T11:57:58.231Z,61.28
2019-02-19T11:58:58.223Z,60.46
2019-02-19T11:59:58.211Z,60.57
2019-02-19T12:00:58.229Z,61.00
2019-02-19T12:01:58.192Z,61.21
2019-02-19T12:02:58.190Z,61.10
2019-02-19T12:03:58.171Z,61.08
2019-02-19T12:04:58.157Z,61.99
2019-02-19T12:05:58.167Z,61.38
2019-02-19T12:06:58.145Z,61.69
2019-02-19T12:07:58.135Z,61.49
2019-02-19T12:08:58.118Z,60.23
2019-02-19T12:09:58.097Z,59.26
2019-02-19T12:10:58.118Z,59.97
2019-02-19T12:11:58.076Z,59.84
2019-02-19T12:12:58.068Z,58.01
2019-02-19T12:13:58.074Z,58.41
2019-02-19T12:14:58.057Z,58.31
2019-02-19T12:15:58.046Z,58.41
2019-02-19T12:16:58.065Z,58.62
2019-02-19T12:17:58.022Z,59.03
2019-02-19T12:18:58.011Z,58.39
2019-02-19T12:19:57.996Z,57.26
2019-02-19T12:20:57.999Z,57.57
2019-02-19T12:21:57.978Z,57.47
2019-02-19T12:22:57.962Z,57.34
2019-02-19T12:23:57.971Z,57.04
2019-02-19T12:24:57.944Z,56.93
2019-02-19T12:25:57.942Z,57.57
2019-02-19T12:26:57.927Z,58.59
2019-02-19T12:27:57.919Z,58.18
2019-02-19T12:28:57.922Z,57.87
2019-02-19T12:29:57.886Z,57.87
2019-02-19T12:30:57.897Z,58.08
2019-02-19T12:31:57.866Z,58.28
2019-02-19T12:32:57.850Z,57.98
2019-02-19T12:33:57.859Z,57.98
2019-02-19T12:34:57.838Z,58.39
2019-02-19T12:35:57.848Z,57.78
2019-02-19T12:36:57.814Z,57.57
2019-02-19T12:37:57.810Z,57.87
2019-02-19T12:38:57.823Z,57.26
2019-02-19T12:39:57.780Z,58.59
2019-02-19T12:40:57.792Z,58.31
2019-02-19T12:41:57.751Z,58.01
2019-02-19T12:42:57.737Z,58.51
2019-02-19T12:43:57.724Z,59.03
2019-02-19T12:44:57.718Z,59.23
2019-02-19T12:45:57.743Z,58.72
2019-02-19T12:46:57.734Z,58.21
2019-02-19T12:47:57.693Z,58.82
2019-02-19T12:48:57.684Z,59.05
2019-02-19T12:49:57.682Z,59.36
2019-02-19T12:50:57.651Z,59.16
2019-02-19T12:51:57.654Z,58.92